Portada
METAR-TAF:

METAR-TAF

Aeropuertos :

Aeropuerto El Embrujo

Isla de Providencia, Colombia

latitud: 13-22N, longitud: 081-21W, altitud: 6 m

Observación

El informe se hizo hace 37 minutos, a las 23:00 UTC
Viento 8 kt con dirección variable
Temperatura 29°C
Humedad 84%
Presión 1012 hPa
Visibilidad 10 km o más
Cielo nuboso a una altura de 1700 ft

METAR: SKPV 242300Z VRB08KT 9999 BKN017 29/26 A2988

Hora: 18:37 (23:37 UTC)


TAF: falta

Observaciones y pronósticos meteorológicos de más de 4000 aeropuertos (mensajes METAR y TAF).

Los puntos amarillos y rojos representan las estaciones disponibles.

Ponga el ratón en el punto deseado para ver el nombre de la estación.

Haga clic para ver las observaciones y los pronósticos meteorológicos.

Para cambiar el mapa : haga clic en los botones verdes con una cruz de color negro para hacer un zoom, en el botón verde con un guión para alejar o en las flechas verdes para mapas adyacentes.


METAR-TAF: